Latest Weather Observations for Warburto Point

IDS60801

Issued at 1:05 am CDT Sunday 26 October 2014 (issued every 30 minutes, with the page automatically refreshed every 10 minutes)

About weather observations | Map of weather stations | Latest weather observations for SA | Other Formats
Station Details ID: 022053 Name: WARBURTO POINT Lat: -34.00 Lon: 137.53 Height: 1.0 m
Data from the previous 72 hours. | See also: Recent months for locations in South Australia
Date/Time
CDT
Temp
°C
App
Temp
°C
Dew
Point
Rel
Hum
%
Delta-T
°C
Wind Press
QNH
hPa
Press
MSL
hPa
Rain
since 9 am
mm
Dir
 
Spd
km/h
Gust
km/h
Spd
kts
Gust
kts
26/01:00am - - - - - ENE 4 7 2 4 - - -
26/12:30am - - - - - ENE 7 9 4 5 - - -
26/12:00am - - - - - NE 2 6 1 3 - - -
 
Date/Time
CDT
Temp
°C
App
Temp
°C
Dew
Point
Rel
Hum
%
Delta-T
°C
Wind Press
QNH
hPa
Press
MSL
hPa
Rain
since 9 am
mm
Dir
 
Spd
km/h
Gust
km/h
Spd
kts
Gust
kts
25/11:30pm - - - - - E 9 11 5 6 - - -
25/11:00pm - - - - - SE 7 11 4 6 - - -
25/10:30pm - - - - - SSE 11 13 6 7 - - -
25/10:00pm - - - - - S 13 15 7 8 - - -
25/09:30pm - - - - - S 15 17 8 9 - - -
25/09:00pm - - - - - SSE 17 20 9 11 - - -
25/08:30pm - - - - - S 20 26 11 14 - - -
25/08:00pm - - - - - SSW 22 28 12 15 - - -
25/07:30pm - - - - - SSW 22 28 12 15 - - -
25/07:00pm - - - - - SSW 22 28 12 15 - - -
25/06:30pm - - - - - SSW 24 30 13 16 - - -
25/06:00pm - - - - - SSW 24 30 13 16 - - -
25/05:30pm - - - - - SSW 20 26 11 14 - - -
25/05:00pm - - - - - SSW 19 24 10 13 - - -
25/04:30pm - - - - - S 20 24 11 13 - - -
25/04:00pm - - - - - S 24 30 13 16 - - -
25/03:30pm - - - - - SSW 26 32 14 17 - - -
25/03:00pm - - - - - SSW 26 30 14 16 - - -
25/02:30pm - - - - - SSW 26 33 14 18 - - -
25/02:00pm - - - - - SW 26 32 14 17 - - -
25/01:30pm - - - - - SW 26 32 14 17 - - -
25/01:00pm - - - - - SW 26 32 14 17 - - -
25/11:30am - - - - - SW 20 28 11 15 - - -
25/11:00am - - - - - SW 17 24 9 13 - - -
25/10:30am - - - - - SSW 19 24 10 13 - - -
25/10:00am - - - - - SSW 20 26 11 14 - - -
25/09:30am - - - - - SSW 22 30 12 16 - - -
25/09:00am - - - - - SSW 26 32 14 17 - - -
25/08:30am - - - - - SSW 24 30 13 16 - - -
25/08:00am - - - - - SSW 26 32 14 17 - - -
25/07:30am - - - - - SSW 20 26 11 14 - - -
25/07:00am - - - - - SSW 20 26 11 14 - - -
25/06:30am - - - - - SW 24 30 13 16 - - -
25/06:00am - - - - - SW 20 28 11 15 - - -
25/05:30am - - - - - SW 20 26 11 14 - - -
25/05:00am - - - - - WSW 13 19 7 10 - - -
25/04:30am - - - - - SW 7 9 4 5 - - -
25/04:00am - - - - - SSW 13 15 7 8 - - -
25/03:30am - - - - - SSW 13 17 7 9 - - -
25/03:00am - - - - - SSW 17 20 9 11 - - -
25/02:30am - - - - - S 17 19 9 10 - - -
25/02:00am - - - - - S 19 24 10 13 - - -
25/01:30am - - - - - S 20 28 11 15 - - -
25/01:00am - - - - - S 20 28 11 15 - - -
25/12:30am - - - - - SSW 20 28 11 15 - - -
25/12:00am - - - - - S 19 24 10 13 - - -
 
Date/Time
CDT
Temp
°C
App
Temp
°C
Dew
Point
Rel
Hum
%
Delta-T
°C
Wind Press
QNH
hPa
Press
MSL
hPa
Rain
since 9 am
mm
Dir
 
Spd
km/h
Gust
km/h
Spd
kts
Gust
kts
24/11:30pm - - - - - S 22 30 12 16 - - -
24/11:00pm - - - - - S 26 32 14 17 - - -
24/10:30pm - - - - - SSW 24 28 13 15 - - -
24/10:00pm - - - - - S 17 22 9 12 - - -
24/09:30pm - - - - - S 24 32 13 17 - - -
24/09:00pm - - - - - SSW 28 35 15 19 - - -
24/08:30pm - - - - - S 24 32 13 17 - - -
24/08:00pm - - - - - S 28 32 15 17 - - -
24/07:30pm - - - - - SW 33 43 18 23 - - -
24/07:00pm - - - - - SSW 24 28 13 15 - - -
24/06:30pm - - - - - SSW 26 32 14 17 - - -
24/06:00pm - - - - - SSW 32 37 17 20 - - -
24/05:30pm - - - - - SSW 33 44 18 24 - - -
24/05:00pm - - - - - SSW 35 50 19 27 - - -
24/04:50pm - - - - - SW 28 39 15 21 - - -
24/04:30pm - - - - - S 17 20 9 11 - - -
24/04:00pm - - - - - SSW 22 28 12 15 - - -
24/03:30pm - - - - - SSW 22 28 12 15 - - -
24/03:00pm - - - - - SSW 19 26 10 14 - - -
24/02:30pm - - - - - SSW 15 19 8 10 - - -
24/02:00pm - - - - - SW 13 17 7 9 - - -
24/01:30pm - - - - - WNW 9 11 5 6 - - -
24/01:00pm - - - - - NW 11 13 6 7 - - -
24/12:30pm - - - - - NNW 9 13 5 7 - - -
24/12:00pm - - - - - NW 9 11 5 6 - - -
24/11:30am - - - - - N 11 15 6 8 - - -
24/11:00am - - - - - NNE 15 19 8 10 - - -
24/10:30am - - - - - N 15 19 8 10 - - -
24/10:00am - - - - - NNE 17 19 9 10 - - -
24/09:30am - - - - - NNE 17 22 9 12 - - -
24/09:00am - - - - - NE 13 17 7 9 - - -
24/08:30am - - - - - NE 11 15 6 8 - - -
24/08:00am - - - - - NE 11 13 6 7 - - -
24/07:30am - - - - - NE 11 15 6 8 - - -
24/07:00am - - - - - NE 13 15 7 8 - - -
24/06:30am - - - - - NE 15 17 8 9 - - -
24/06:00am - - - - - ENE 13 15 7 8 - - -
24/05:30am - - - - - ENE 13 15 7 8 - - -
24/05:00am - - - - - NE 13 15 7 8 - - -
24/04:30am - - - - - ENE 11 13 6 7 - - -
24/04:00am - - - - - NE 13 13 7 7 - - -
24/03:30am - - - - - ENE 13 15 7 8 - - -
24/03:00am - - - - - ENE 2 7 1 4 - - -
24/02:30am - - - - - E 4 9 2 5 - - -
24/02:00am - - - - - ENE 11 17 6 9 - - -
24/01:30am - - - - - ENE 15 17 8 9 - - -
24/01:00am - - - - - NE 11 11 6 6 - - -
24/12:30am - - - - - NNE 11 11 6 6 - - -
24/12:00am - - - - - E 11 13 6 7 - - -
 
Date/Time
CDT
Temp
°C
App
Temp
°C
Dew
Point
Rel
Hum
%
Delta-T
°C
Wind Press
QNH
hPa
Press
MSL
hPa
Rain
since 9 am
mm
Dir
 
Spd
km/h
Gust
km/h
Spd
kts
Gust
kts
23/11:30pm - - - - - ENE 9 13 5 7 - - -
23/11:00pm - - - - - E 11 11 6 6 - - -
23/10:30pm - - - - - E 9 11 5 6 - - -
23/10:00pm - - - - - E 11 13 6 7 - - -
23/09:30pm - - - - - SSE 17 19 9 10 - - -
23/09:00pm - - - - - S 19 26 10 14 - - -
23/08:30pm - - - - - S 24 30 13 16 - - -
23/08:00pm - - - - - S 26 32 14 17 - - -
23/07:30pm - - - - - SSW 28 33 15 18 - - -
23/07:00pm - - - - - SW 30 35 16 19 - - -
23/06:30pm - - - - - SW 32 39 17 21 - - -
23/06:00pm - - - - - SSW 28 35 15 19 - - -
23/05:30pm - - - - - SSW 24 30 13 16 - - -
23/05:00pm - - - - - SSW 24 28 13 15 - - -
23/04:30pm - - - - - SW 24 32 13 17 - - -
23/04:00pm - - - - - SW 24 30 13 16 - - -
23/03:30pm - - - - - SW 22 28 12 15 - - -
23/03:00pm - - - - - SW 20 28 11 15 - - -
23/02:30pm - - - - - SW 24 30 13 16 - - -
23/02:00pm - - - - - WSW 24 32 13 17 - - -
23/01:30pm - - - - - WSW 22 32 12 17 - - -
23/01:00pm - - - - - SW 20 26 11 14 - - -
23/12:30pm - - - - - SW 20 26 11 14 - - -
23/12:00pm - - - - - WSW 19 26 10 14 - - -
23/11:30am - - - - - WSW 17 22 9 12 - - -
23/11:00am - - - - - W 20 26 11 14 - - -
23/10:30am - - - - - SW 15 20 8 11 - - -
23/10:00am - - - - - SW 11 15 6 8 - - -
23/09:30am - - - - - S 7 11 4 6 - - -
23/09:00am - - - - - SSE 7 9 4 5 - - -
23/08:30am - - - - - ESE 9 17 5 9 - - -
23/08:00am - - - - - ESE 11 17 6 9 - - -
23/07:30am - - - - - ESE 11 13 6 7 - - -
23/07:00am - - - - - SE 15 19 8 10 - - -
23/06:30am - - - - - SSE 13 19 7 10 - - -
23/06:00am - - - - - SSE 19 26 10 14 - - -
23/05:30am - - - - - S 17 24 9 13 - - -
23/05:00am - - - - - S 13 19 7 10 - - -
23/04:30am - - - - - S 17 22 9 12 - - -
23/04:00am - - - - - S 17 28 9 15 - - -
23/03:30am - - - - - SSE 22 28 12 15 - - -
23/03:00am - - - - - S 17 26 9 14 - - -
23/02:30am - - - - - SE 19 26 10 14 - - -
23/02:00am - - - - - SSE 20 28 11 15 - - -
23/01:30am - - - - - SSE 20 28 11 15 - - -

Other Formats:

Comma delimited format used in spreadsheet applications
http://www.bom.gov.au/fwo/IDS60801/IDS60801.94666.axf

JavaScript Object Notation format (JSON) in row-major order
http://www.bom.gov.au/fwo/IDS60801/IDS60801.94666.json